sensor_id;sensor_type;location;lat;lon;timestamp;P1;durP1;ratioP1;P2;durP2;ratioP2
23474;SDS011;11910;52.086;21.066;2023-09-12T00:02:06;21.15;;;16.42;;
23474;SDS011;11910;52.086;21.066;2023-09-12T00:04:31;21.85;;;16.58;;
23474;SDS011;11910;52.086;21.066;2023-09-12T00:06:57;19.88;;;15.57;;
23474;SDS011;11910;52.086;21.066;2023-09-12T00:09:22;18.80;;;16.35;;
23474;SDS011;11910;52.086;21.066;2023-09-12T00:11:48;20.15;;;15.75;;
23474;SDS011;11910;52.086;21.066;2023-09-12T00:14:17;18.85;;;16.70;;
23474;SDS011;11910;52.086;21.066;2023-09-12T00:16:43;21.98;;;17.35;;
23474;SDS011;11910;52.086;21.066;2023-09-12T00:19:09;21.40;;;19.10;;
23474;SDS011;11910;52.086;21.066;2023-09-12T00:21:34;20.77;;;16.60;;
23474;SDS011;11910;52.086;21.066;2023-09-12T00:24:00;23.73;;;18.70;;
23474;SDS011;11910;52.086;21.066;2023-09-12T00:26:26;22.17;;;17.85;;
23474;SDS011;11910;52.086;21.066;2023-09-12T00:28:52;22.05;;;17.55;;
23474;SDS011;11910;52.086;21.066;2023-09-12T00:31:17;19.73;;;16.98;;
23474;SDS011;11910;52.086;21.066;2023-09-12T00:33:43;22.00;;;18.20;;
23474;SDS011;11910;52.086;21.066;2023-09-12T00:36:09;23.33;;;19.83;;
23474;SDS011;11910;52.086;21.066;2023-09-12T00:38:34;27.92;;;19.92;;
23474;SDS011;11910;52.086;21.066;2023-09-12T00:41:00;21.73;;;17.35;;
23474;SDS011;11910;52.086;21.066;2023-09-12T00:43:25;19.33;;;14.52;;
23474;SDS011;11910;52.086;21.066;2023-09-12T00:45:51;23.15;;;17.35;;
23474;SDS011;11910;52.086;21.066;2023-09-12T00:48:17;18.70;;;16.73;;
23474;SDS011;11910;52.086;21.066;2023-09-12T00:50:44;16.67;;;14.93;;
23474;SDS011;11910;52.086;21.066;2023-09-12T00:53:12;18.00;;;15.60;;
23474;SDS011;11910;52.086;21.066;2023-09-12T00:55:39;17.00;;;15.30;;
23474;SDS011;11910;52.086;21.066;2023-09-12T00:58:08;18.73;;;16.83;;
23474;SDS011;11910;52.086;21.066;2023-09-12T01:00:33;18.67;;;15.93;;
23474;SDS011;11910;52.086;21.066;2023-09-12T01:02:59;19.20;;;17.30;;
23474;SDS011;11910;52.086;21.066;2023-09-12T01:05:25;18.77;;;16.65;;
23474;SDS011;11910;52.086;21.066;2023-09-12T01:07:53;19.40;;;16.58;;
23474;SDS011;11910;52.086;21.066;2023-09-12T01:10:18;18.65;;;16.75;;
23474;SDS011;11910;52.086;21.066;2023-09-12T01:12:44;22.50;;;18.45;;
23474;SDS011;11910;52.086;21.066;2023-09-12T01:15:10;18.80;;;16.80;;
23474;SDS011;11910;52.086;21.066;2023-09-12T01:17:39;18.80;;;16.92;;
23474;SDS011;11910;52.086;21.066;2023-09-12T01:20:06;18.60;;;16.75;;
23474;SDS011;11910;52.086;21.066;2023-09-12T01:26:01;19.35;;;17.48;;
23474;SDS011;11910;52.086;21.066;2023-09-12T01:28:29;21.10;;;17.73;;
23474;SDS011;11910;52.086;21.066;2023-09-12T01:30:57;19.30;;;17.30;;
23474;SDS011;11910;52.086;21.066;2023-09-12T01:33:24;19.88;;;17.77;;
23474;SDS011;11910;52.086;21.066;2023-09-12T01:35:50;20.10;;;17.98;;
23474;SDS011;11910;52.086;21.066;2023-09-12T01:38:16;22.25;;;17.65;;
23474;SDS011;11910;52.086;21.066;2023-09-12T01:40:49;17.40;;;15.57;;
23474;SDS011;11910;52.086;21.066;2023-09-12T01:43:17;19.88;;;16.85;;
23474;SDS011;11910;52.086;21.066;2023-09-12T01:45:44;19.02;;;16.27;;
23474;SDS011;11910;52.086;21.066;2023-09-12T01:48:12;19.48;;;16.73;;
23474;SDS011;11910;52.086;21.066;2023-09-12T01:50:43;21.42;;;17.50;;
23474;SDS011;11910;52.086;21.066;2023-09-12T01:53:09;20.48;;;18.30;;
23474;SDS011;11910;52.086;21.066;2023-09-12T01:55:36;21.42;;;17.73;;
23474;SDS011;11910;52.086;21.066;2023-09-12T01:58:02;17.95;;;16.15;;
23474;SDS011;11910;52.086;21.066;2023-09-12T02:00:28;20.63;;;18.20;;
23474;SDS011;11910;52.086;21.066;2023-09-12T02:02:54;23.15;;;18.92;;
23474;SDS011;11910;52.086;21.066;2023-09-12T02:05:21;22.30;;;18.55;;
23474;SDS011;11910;52.086;21.066;2023-09-12T02:07:47;21.55;;;18.27;;
23474;SDS011;11910;52.086;21.066;2023-09-12T02:10:13;19.83;;;17.83;;
23474;SDS011;11910;52.086;21.066;2023-09-12T02:12:39;20.13;;;18.05;;
23474;SDS011;11910;52.086;21.066;2023-09-12T02:15:05;20.05;;;17.95;;
23474;SDS011;11910;52.086;21.066;2023-09-12T02:17:31;20.27;;;18.10;;
23474;SDS011;11910;52.086;21.066;2023-09-12T02:19:57;19.10;;;17.10;;
23474;SDS011;11910;52.086;21.066;2023-09-12T02:22:22;18.13;;;16.27;;
23474;SDS011;11910;52.086;21.066;2023-09-12T02:24:48;19.42;;;17.52;;
23474;SDS011;11910;52.086;21.066;2023-09-12T02:27:14;20.98;;;18.98;;
23474;SDS011;11910;52.086;21.066;2023-09-12T02:29:40;19.83;;;17.70;;
23474;SDS011;11910;52.086;21.066;2023-09-12T02:32:06;21.23;;;17.23;;
23474;SDS011;11910;52.086;21.066;2023-09-12T02:34:32;19.27;;;17.40;;
23474;SDS011;11910;52.086;21.066;2023-09-12T02:36:58;18.40;;;16.60;;
23474;SDS011;11910;52.086;21.066;2023-09-12T02:39:24;18.48;;;16.63;;
23474;SDS011;11910;52.086;21.066;2023-09-12T02:41:49;18.85;;;17.13;;
23474;SDS011;11910;52.086;21.066;2023-09-12T02:44:15;19.52;;;17.52;;
23474;SDS011;11910;52.086;21.066;2023-09-12T02:46:41;17.75;;;16.05;;
23474;SDS011;11910;52.086;21.066;2023-09-12T02:49:07;17.83;;;14.95;;
23474;SDS011;11910;52.086;21.066;2023-09-12T02:51:33;17.55;;;15.65;;
23474;SDS011;11910;52.086;21.066;2023-09-12T02:53:58;21.80;;;17.15;;
23474;SDS011;11910;52.086;21.066;2023-09-12T02:56:24;20.58;;;17.63;;
23474;SDS011;11910;52.086;21.066;2023-09-12T02:58:50;19.10;;;17.10;;
23474;SDS011;11910;52.086;21.066;2023-09-12T03:01:16;19.65;;;17.15;;
23474;SDS011;11910;52.086;21.066;2023-09-12T03:03:42;18.10;;;16.27;;
23474;SDS011;11910;52.086;21.066;2023-09-12T03:06:09;22.20;;;17.00;;
23474;SDS011;11910;52.086;21.066;2023-09-12T03:08:35;20.27;;;17.52;;
23474;SDS011;11910;52.086;21.066;2023-09-12T03:11:00;19.08;;;17.13;;
23474;SDS011;11910;52.086;21.066;2023-09-12T03:13:28;19.65;;;17.63;;
23474;SDS011;11910;52.086;21.066;2023-09-12T03:15:53;18.95;;;16.95;;
23474;SDS011;11910;52.086;21.066;2023-09-12T03:18:19;18.05;;;16.25;;
23474;SDS011;11910;52.086;21.066;2023-09-12T03:20:45;17.75;;;15.85;;
23474;SDS011;11910;52.086;21.066;2023-09-12T03:23:10;22.80;;;18.05;;
23474;SDS011;11910;52.086;21.066;2023-09-12T03:25:36;20.25;;;17.10;;
23474;SDS011;11910;52.086;21.066;2023-09-12T03:28:06;20.33;;;17.73;;
23474;SDS011;11910;52.086;21.066;2023-09-12T03:30:33;18.50;;;15.55;;
23474;SDS011;11910;52.086;21.066;2023-09-12T03:32:59;21.52;;;17.20;;
23474;SDS011;11910;52.086;21.066;2023-09-12T03:35:25;18.08;;;15.88;;
23474;SDS011;11910;52.086;21.066;2023-09-12T03:37:51;21.65;;;17.90;;
23474;SDS011;11910;52.086;21.066;2023-09-12T03:40:17;20.85;;;18.17;;
23474;SDS011;11910;52.086;21.066;2023-09-12T03:42:42;21.80;;;18.20;;
23474;SDS011;11910;52.086;21.066;2023-09-12T03:45:08;20.75;;;17.67;;
23474;SDS011;11910;52.086;21.066;2023-09-12T03:47:34;19.73;;;17.63;;
23474;SDS011;11910;52.086;21.066;2023-09-12T03:50:00;19.20;;;17.15;;
23474;SDS011;11910;52.086;21.066;2023-09-12T03:52:25;26.67;;;19.23;;
23474;SDS011;11910;52.086;21.066;2023-09-12T03:54:51;19.55;;;16.20;;
23474;SDS011;11910;52.086;21.066;2023-09-12T03:57:16;22.27;;;16.88;;
23474;SDS011;11910;52.086;21.066;2023-09-12T03:59:42;19.25;;;16.02;;
23474;SDS011;11910;52.086;21.066;2023-09-12T04:02:08;19.83;;;17.73;;
23474;SDS011;11910;52.086;21.066;2023-09-12T04:04:34;20.25;;;18.10;;
23474;SDS011;11910;52.086;21.066;2023-09-12T04:06:59;18.95;;;16.15;;
23474;SDS011;11910;52.086;21.066;2023-09-12T04:09:26;25.52;;;17.67;;
23474;SDS011;11910;52.086;21.066;2023-09-12T04:11:52;21.92;;;18.20;;
23474;SDS011;11910;52.086;21.066;2023-09-12T04:14:18;20.98;;;17.40;;
23474;SDS011;11910;52.086;21.066;2023-09-12T04:16:44;22.92;;;18.33;;
23474;SDS011;11910;52.086;21.066;2023-09-12T04:19:09;20.83;;;17.27;;
23474;SDS011;11910;52.086;21.066;2023-09-12T04:21:35;25.08;;;18.60;;
23474;SDS011;11910;52.086;21.066;2023-09-12T04:24:00;21.85;;;17.45;;
23474;SDS011;11910;52.086;21.066;2023-09-12T04:26:26;19.55;;;17.45;;
23474;SDS011;11910;52.086;21.066;2023-09-12T04:28:51;21.08;;;18.08;;
23474;SDS011;11910;52.086;21.066;2023-09-12T04:31:17;18.88;;;16.70;;
23474;SDS011;11910;52.086;21.066;2023-09-12T04:33:43;22.35;;;18.02;;
23474;SDS011;11910;52.086;21.066;2023-09-12T04:36:08;22.67;;;18.05;;
23474;SDS011;11910;52.086;21.066;2023-09-12T04:38:34;17.33;;;15.40;;
23474;SDS011;11910;52.086;21.066;2023-09-12T04:41:01;19.88;;;17.58;;
23474;SDS011;11910;52.086;21.066;2023-09-12T04:43:28;25.83;;;16.77;;
23474;SDS011;11910;52.086;21.066;2023-09-12T04:45:53;22.80;;;18.70;;
23474;SDS011;11910;52.086;21.066;2023-09-12T04:48:19;24.73;;;18.63;;
23474;SDS011;11910;52.086;21.066;2023-09-12T04:50:44;21.25;;;18.98;;
23474;SDS011;11910;52.086;21.066;2023-09-12T04:53:10;24.60;;;18.67;;
23474;SDS011;11910;52.086;21.066;2023-09-12T04:55:36;22.88;;;20.05;;
23474;SDS011;11910;52.086;21.066;2023-09-12T04:58:02;23.17;;;20.08;;
23474;SDS011;11910;52.086;21.066;2023-09-12T05:00:29;23.40;;;20.92;;
23474;SDS011;11910;52.086;21.066;2023-09-12T05:02:54;24.55;;;20.27;;
23474;SDS011;11910;52.086;21.066;2023-09-12T05:05:20;24.77;;;22.13;;
23474;SDS011;11910;52.086;21.066;2023-09-12T05:07:45;28.48;;;21.98;;
23474;SDS011;11910;52.086;21.066;2023-09-12T05:10:11;25.98;;;22.60;;
23474;SDS011;11910;52.086;21.066;2023-09-12T05:12:37;28.58;;;21.98;;
23474;SDS011;11910;52.086;21.066;2023-09-12T05:15:02;27.75;;;21.42;;
23474;SDS011;11910;52.086;21.066;2023-09-12T05:17:28;27.98;;;22.38;;
23474;SDS011;11910;52.086;21.066;2023-09-12T05:19:54;25.63;;;22.67;;
23474;SDS011;11910;52.086;21.066;2023-09-12T05:22:19;25.38;;;22.38;;
23474;SDS011;11910;52.086;21.066;2023-09-12T05:24:45;31.13;;;22.67;;
23474;SDS011;11910;52.086;21.066;2023-09-12T05:27:11;26.50;;;23.80;;
23474;SDS011;11910;52.086;21.066;2023-09-12T05:29:37;27.58;;;24.67;;
23474;SDS011;11910;52.086;21.066;2023-09-12T05:32:03;29.13;;;25.85;;
23474;SDS011;11910;52.086;21.066;2023-09-12T05:34:29;26.52;;;23.73;;
23474;SDS011;11910;52.086;21.066;2023-09-12T05:36:56;27.40;;;24.33;;
23474;SDS011;11910;52.086;21.066;2023-09-12T05:39:22;30.60;;;26.80;;
23474;SDS011;11910;52.086;21.066;2023-09-12T05:41:48;30.77;;;24.92;;
23474;SDS011;11910;52.086;21.066;2023-09-12T05:44:14;33.75;;;25.27;;
23474;SDS011;11910;52.086;21.066;2023-09-12T05:46:46;34.67;;;27.52;;
23474;SDS011;11910;52.086;21.066;2023-09-12T05:49:13;37.35;;;23.65;;
23474;SDS011;11910;52.086;21.066;2023-09-12T05:51:39;34.65;;;25.00;;
23474;SDS011;11910;52.086;21.066;2023-09-12T05:54:05;38.80;;;24.50;;
23474;SDS011;11910;52.086;21.066;2023-09-12T05:56:31;33.90;;;26.75;;
23474;SDS011;11910;52.086;21.066;2023-09-12T05:59:00;32.75;;;27.55;;
23474;SDS011;11910;52.086;21.066;2023-09-12T06:01:28;30.88;;;26.13;;
23474;SDS011;11910;52.086;21.066;2023-09-12T06:03:54;37.30;;;26.17;;
23474;SDS011;11910;52.086;21.066;2023-09-12T06:06:19;29.52;;;25.98;;
23474;SDS011;11910;52.086;21.066;2023-09-12T06:08:45;31.88;;;25.10;;
23474;SDS011;11910;52.086;21.066;2023-09-12T06:11:11;33.28;;;25.48;;
23474;SDS011;11910;52.086;21.066;2023-09-12T06:13:36;33.10;;;27.23;;
23474;SDS011;11910;52.086;21.066;2023-09-12T06:16:02;36.97;;;28.30;;
23474;SDS011;11910;52.086;21.066;2023-09-12T06:18:30;32.05;;;27.77;;
23474;SDS011;11910;52.086;21.066;2023-09-12T06:20:57;30.73;;;25.95;;
23474;SDS011;11910;52.086;21.066;2023-09-12T06:23:24;32.92;;;25.23;;
23474;SDS011;11910;52.086;21.066;2023-09-12T06:25:49;35.42;;;28.77;;
23474;SDS011;11910;52.086;21.066;2023-09-12T06:28:24;34.00;;;28.58;;
23474;SDS011;11910;52.086;21.066;2023-09-12T06:30:55;34.90;;;25.92;;
23474;SDS011;11910;52.086;21.066;2023-09-12T06:33:22;32.13;;;28.20;;
23474;SDS011;11910;52.086;21.066;2023-09-12T06:35:51;33.53;;;26.08;;
23474;SDS011;11910;52.086;21.066;2023-09-12T06:38:21;33.25;;;27.40;;
23474;SDS011;11910;52.086;21.066;2023-09-12T06:40:47;40.22;;;30.25;;
23474;SDS011;11910;52.086;21.066;2023-09-12T06:43:13;32.83;;;28.67;;
23474;SDS011;11910;52.086;21.066;2023-09-12T06:45:42;34.22;;;27.92;;
23474;SDS011;11910;52.086;21.066;2023-09-12T06:48:09;35.60;;;26.60;;
23474;SDS011;11910;52.086;21.066;2023-09-12T06:50:35;35.55;;;25.63;;
23474;SDS011;11910;52.086;21.066;2023-09-12T06:53:03;33.13;;;24.27;;
23474;SDS011;11910;52.086;21.066;2023-09-12T06:55:30;37.88;;;25.00;;
23474;SDS011;11910;52.086;21.066;2023-09-12T06:57:56;32.67;;;24.38;;
23474;SDS011;11910;52.086;21.066;2023-09-12T07:00:22;31.88;;;24.15;;
23474;SDS011;11910;52.086;21.066;2023-09-12T07:02:49;29.98;;;23.85;;
23474;SDS011;11910;52.086;21.066;2023-09-12T07:05:14;39.25;;;23.55;;
23474;SDS011;11910;52.086;21.066;2023-09-12T07:07:40;26.92;;;22.50;;
23474;SDS011;11910;52.086;21.066;2023-09-12T07:10:06;31.65;;;23.33;;
23474;SDS011;11910;52.086;21.066;2023-09-12T07:12:31;28.40;;;22.27;;
23474;SDS011;11910;52.086;21.066;2023-09-12T07:14:58;27.83;;;22.10;;
23474;SDS011;11910;52.086;21.066;2023-09-12T07:17:24;30.63;;;21.88;;
23474;SDS011;11910;52.086;21.066;2023-09-12T07:19:52;26.35;;;22.10;;
23474;SDS011;11910;52.086;21.066;2023-09-12T07:22:18;23.80;;;20.38;;
23474;SDS011;11910;52.086;21.066;2023-09-12T07:24:43;27.73;;;20.38;;
23474;SDS011;11910;52.086;21.066;2023-09-12T07:27:09;28.20;;;21.35;;
23474;SDS011;11910;52.086;21.066;2023-09-12T07:29:34;28.85;;;20.70;;
23474;SDS011;11910;52.086;21.066;2023-09-12T07:32:00;27.38;;;19.35;;
23474;SDS011;11910;52.086;21.066;2023-09-12T07:34:25;27.08;;;18.90;;
23474;SDS011;11910;52.086;21.066;2023-09-12T07:36:51;26.08;;;18.75;;
23474;SDS011;11910;52.086;21.066;2023-09-12T07:39:18;22.35;;;19.70;;
23474;SDS011;11910;52.086;21.066;2023-09-12T07:41:44;24.42;;;18.42;;
23474;SDS011;11910;52.086;21.066;2023-09-12T07:44:09;22.13;;;18.02;;
23474;SDS011;11910;52.086;21.066;2023-09-12T07:46:37;22.67;;;19.20;;
23474;SDS011;11910;52.086;21.066;2023-09-12T07:49:03;24.08;;;18.02;;
23474;SDS011;11910;52.086;21.066;2023-09-12T07:51:28;24.65;;;17.48;;
23474;SDS011;11910;52.086;21.066;2023-09-12T07:53:54;18.27;;;16.48;;
23474;SDS011;11910;52.086;21.066;2023-09-12T07:56:20;24.48;;;18.65;;
23474;SDS011;11910;52.086;21.066;2023-09-12T07:58:45;26.08;;;17.60;;
23474;SDS011;11910;52.086;21.066;2023-09-12T08:01:11;22.85;;;18.38;;
23474;SDS011;11910;52.086;21.066;2023-09-12T08:03:37;25.33;;;17.80;;
23474;SDS011;11910;52.086;21.066;2023-09-12T08:06:04;21.67;;;17.05;;
23474;SDS011;11910;52.086;21.066;2023-09-12T08:08:30;18.00;;;15.88;;
23474;SDS011;11910;52.086;21.066;2023-09-12T08:10:56;24.38;;;15.70;;
23474;SDS011;11910;52.086;21.066;2023-09-12T08:13:22;22.48;;;15.77;;
23474;SDS011;11910;52.086;21.066;2023-09-12T08:15:50;23.05;;;16.13;;
23474;SDS011;11910;52.086;21.066;2023-09-12T08:18:16;20.27;;;16.00;;
23474;SDS011;11910;52.086;21.066;2023-09-12T08:20:42;19.15;;;15.63;;
23474;SDS011;11910;52.086;21.066;2023-09-12T08:23:08;23.52;;;15.40;;
23474;SDS011;11910;52.086;21.066;2023-09-12T08:25:34;18.23;;;15.32;;
23474;SDS011;11910;52.086;21.066;2023-09-12T08:28:00;22.33;;;15.48;;
23474;SDS011;11910;52.086;21.066;2023-09-12T08:30:26;20.30;;;15.98;;
23474;SDS011;11910;52.086;21.066;2023-09-12T08:32:53;19.17;;;16.00;;
23474;SDS011;11910;52.086;21.066;2023-09-12T08:35:18;19.45;;;16.15;;
23474;SDS011;11910;52.086;21.066;2023-09-12T08:37:44;17.85;;;14.60;;
23474;SDS011;11910;52.086;21.066;2023-09-12T08:40:10;18.52;;;15.77;;
23474;SDS011;11910;52.086;21.066;2023-09-12T08:42:42;21.65;;;15.88;;
23474;SDS011;11910;52.086;21.066;2023-09-12T08:45:13;16.98;;;14.38;;
23474;SDS011;11910;52.086;21.066;2023-09-12T08:47:50;17.83;;;13.52;;
23474;SDS011;11910;52.086;21.066;2023-09-12T08:50:19;16.60;;;14.13;;
23474;SDS011;11910;52.086;21.066;2023-09-12T08:52:46;15.88;;;14.10;;
23474;SDS011;11910;52.086;21.066;2023-09-12T08:55:12;19.20;;;14.60;;
23474;SDS011;11910;52.086;21.066;2023-09-12T08:57:40;16.17;;;13.70;;
23474;SDS011;11910;52.086;21.066;2023-09-12T09:00:07;17.83;;;14.13;;
23474;SDS011;11910;52.086;21.066;2023-09-12T09:02:35;16.05;;;13.88;;
23474;SDS011;11910;52.086;21.066;2023-09-12T09:05:03;14.48;;;12.77;;
23474;SDS011;11910;52.086;21.066;2023-09-12T09:07:31;17.42;;;13.52;;
23474;SDS011;11910;52.086;21.066;2023-09-12T09:10:03;18.08;;;13.68;;
23474;SDS011;11910;52.086;21.066;2023-09-12T09:12:31;18.50;;;12.38;;
23474;SDS011;11910;52.086;21.066;2023-09-12T09:14:57;17.77;;;12.35;;
23474;SDS011;11910;52.086;21.066;2023-09-12T09:17:23;15.93;;;12.25;;
23474;SDS011;11910;52.086;21.066;2023-09-12T09:19:49;13.93;;;11.73;;
23474;SDS011;11910;52.086;21.066;2023-09-12T09:22:15;16.17;;;12.18;;
23474;SDS011;11910;52.086;21.066;2023-09-12T09:24:41;14.00;;;10.98;;
23474;SDS011;11910;52.086;21.066;2023-09-12T09:27:07;18.65;;;12.07;;
23474;SDS011;11910;52.086;21.066;2023-09-12T09:29:32;15.82;;;11.93;;
23474;SDS011;11910;52.086;21.066;2023-09-12T09:32:19;17.10;;;11.30;;
23474;SDS011;11910;52.086;21.066;2023-09-12T09:34:47;12.05;;;10.75;;
23474;SDS011;11910;52.086;21.066;2023-09-12T09:37:12;13.40;;;10.43;;
23474;SDS011;11910;52.086;21.066;2023-09-12T09:39:40;11.95;;;9.80;;
23474;SDS011;11910;52.086;21.066;2023-09-12T09:42:06;11.57;;;10.35;;
23474;SDS011;11910;52.086;21.066;2023-09-12T09:44:38;13.57;;;10.30;;
23474;SDS011;11910;52.086;21.066;2023-09-12T09:47:04;11.63;;;9.75;;
23474;SDS011;11910;52.086;21.066;2023-09-12T09:49:33;10.48;;;9.38;;
23474;SDS011;11910;52.086;21.066;2023-09-12T09:52:04;12.75;;;9.85;;
23474;SDS011;11910;52.086;21.066;2023-09-12T09:54:32;10.90;;;9.68;;
23474;SDS011;11910;52.086;21.066;2023-09-12T09:57:02;11.70;;;10.50;;
23474;SDS011;11910;52.086;21.066;2023-09-12T09:59:29;12.82;;;11.35;;
23474;SDS011;11910;52.086;21.066;2023-09-12T10:01:57;13.48;;;10.23;;
23474;SDS011;11910;52.086;21.066;2023-09-12T10:07:42;12.48;;;11.13;;
23474;SDS011;11910;52.086;21.066;2023-09-12T10:10:10;13.88;;;10.45;;
23474;SDS011;11910;52.086;21.066;2023-09-12T10:47:08;13.07;;;11.77;;
23474;SDS011;11910;52.086;21.066;2023-09-12T10:54:01;13.27;;;11.98;;
23474;SDS011;11910;52.086;21.066;2023-09-12T11:00:11;12.77;;;11.48;;
23474;SDS011;11910;52.086;21.066;2023-09-12T11:06:22;12.07;;;10.90;;
23474;SDS011;11910;52.086;21.066;2023-09-12T11:29:14;13.38;;;12.02;;
23474;SDS011;11910;52.086;21.066;2023-09-12T11:31:51;13.48;;;12.10;;
23474;SDS011;11910;52.086;21.066;2023-09-12T11:39:05;16.73;;;12.70;;
23474;SDS011;11910;52.086;21.066;2023-09-12T11:41:58;13.57;;;12.18;;
23474;SDS011;11910;52.086;21.066;2023-09-12T11:44:25;17.35;;;12.10;;
23474;SDS011;11910;52.086;21.066;2023-09-12T11:46:57;14.15;;;12.38;;
23474;SDS011;11910;52.086;21.066;2023-09-12T11:49:39;13.90;;;12.65;;
23474;SDS011;11910;52.086;21.066;2023-09-12T11:52:12;15.43;;;12.13;;
23474;SDS011;11910;52.086;21.066;2023-09-12T11:54:43;13.48;;;12.05;;
23474;SDS011;11910;52.086;21.066;2023-09-12T11:57:33;15.57;;;12.48;;
23474;SDS011;11910;52.086;21.066;2023-09-12T12:00:02;14.70;;;12.98;;
23474;SDS011;11910;52.086;21.066;2023-09-12T12:02:33;14.15;;;12.65;;
23474;SDS011;11910;52.086;21.066;2023-09-12T12:04:59;13.40;;;12.00;;
23474;SDS011;11910;52.086;21.066;2023-09-12T12:07:26;15.02;;;12.68;;
23474;SDS011;11910;52.086;21.066;2023-09-12T12:09:52;13.18;;;11.90;;
23474;SDS011;11910;52.086;21.066;2023-09-12T12:12:26;14.57;;;13.23;;
23474;SDS011;11910;52.086;21.066;2023-09-12T12:15:14;14.13;;;12.55;;
23474;SDS011;11910;52.086;21.066;2023-09-12T12:17:44;14.43;;;13.13;;
23474;SDS011;11910;52.086;21.066;2023-09-12T12:20:24;15.25;;;12.23;;
23474;SDS011;11910;52.086;21.066;2023-09-12T12:23:13;17.80;;;12.85;;
23474;SDS011;11910;52.086;21.066;2023-09-12T12:26:08;15.35;;;12.82;;
23474;SDS011;11910;52.086;21.066;2023-09-12T12:28:58;23.80;;;14.30;;
23474;SDS011;11910;52.086;21.066;2023-09-12T12:31:25;23.08;;;16.58;;
23474;SDS011;11910;52.086;21.066;2023-09-12T12:37:01;21.85;;;16.40;;
23474;SDS011;11910;52.086;21.066;2023-09-12T12:39:47;18.25;;;11.98;;
23474;SDS011;11910;52.086;21.066;2023-09-12T12:42:13;15.73;;;13.63;;
23474;SDS011;11910;52.086;21.066;2023-09-12T12:44:39;30.42;;;19.13;;
23474;SDS011;11910;52.086;21.066;2023-09-12T12:47:06;18.00;;;13.75;;
23474;SDS011;11910;52.086;21.066;2023-09-12T12:49:37;17.05;;;14.27;;
23474;SDS011;11910;52.086;21.066;2023-09-12T12:52:04;27.58;;;16.73;;
23474;SDS011;11910;52.086;21.066;2023-09-12T12:54:33;18.52;;;13.38;;
23474;SDS011;11910;52.086;21.066;2023-09-12T12:56:59;16.40;;;12.95;;
23474;SDS011;11910;52.086;21.066;2023-09-12T12:59:27;18.55;;;14.00;;
23474;SDS011;11910;52.086;21.066;2023-09-12T13:01:55;14.98;;;13.48;;
23474;SDS011;11910;52.086;21.066;2023-09-12T13:04:20;17.27;;;13.48;;
23474;SDS011;11910;52.086;21.066;2023-09-12T13:07:00;14.10;;;12.77;;
23474;SDS011;11910;52.086;21.066;2023-09-12T13:09:26;16.27;;;13.15;;
23474;SDS011;11910;52.086;21.066;2023-09-12T13:11:52;13.98;;;11.77;;
23474;SDS011;11910;52.086;21.066;2023-09-12T13:14:17;15.65;;;13.35;;
23474;SDS011;11910;52.086;21.066;2023-09-12T13:16:44;19.15;;;14.15;;
23474;SDS011;11910;52.086;21.066;2023-09-12T13:19:10;16.23;;;12.40;;
23474;SDS011;11910;52.086;21.066;2023-09-12T13:21:38;16.95;;;12.30;;
23474;SDS011;11910;52.086;21.066;2023-09-12T13:24:04;17.20;;;13.63;;
23474;SDS011;11910;52.086;21.066;2023-09-12T13:26:39;13.52;;;11.90;;
23474;SDS011;11910;52.086;21.066;2023-09-12T13:29:05;17.80;;;13.60;;
23474;SDS011;11910;52.086;21.066;2023-09-12T13:31:34;16.45;;;14.13;;
23474;SDS011;11910;52.086;21.066;2023-09-12T13:33:59;20.55;;;12.32;;
23474;SDS011;11910;52.086;21.066;2023-09-12T13:36:25;15.88;;;12.38;;
23474;SDS011;11910;52.086;21.066;2023-09-12T13:38:51;13.60;;;12.10;;
23474;SDS011;11910;52.086;21.066;2023-09-12T13:41:22;13.93;;;12.43;;
23474;SDS011;11910;52.086;21.066;2023-09-12T13:43:48;17.20;;;13.27;;
23474;SDS011;11910;52.086;21.066;2023-09-12T13:46:14;14.70;;;11.70;;
23474;SDS011;11910;52.086;21.066;2023-09-12T13:48:41;13.60;;;12.20;;
23474;SDS011;11910;52.086;21.066;2023-09-12T13:51:06;14.90;;;13.10;;
23474;SDS011;11910;52.086;21.066;2023-09-12T13:53:32;16.02;;;12.57;;
23474;SDS011;11910;52.086;21.066;2023-09-12T13:55:58;13.93;;;12.45;;
23474;SDS011;11910;52.086;21.066;2023-09-12T13:58:26;14.60;;;12.52;;
23474;SDS011;11910;52.086;21.066;2023-09-12T14:00:51;14.50;;;13.07;;
23474;SDS011;11910;52.086;21.066;2023-09-12T14:03:17;14.50;;;12.25;;
23474;SDS011;11910;52.086;21.066;2023-09-12T14:05:43;17.67;;;11.98;;
23474;SDS011;11910;52.086;21.066;2023-09-12T14:08:11;15.55;;;13.68;;
23474;SDS011;11910;52.086;21.066;2023-09-12T14:10:36;14.68;;;12.45;;
23474;SDS011;11910;52.086;21.066;2023-09-12T14:13:02;13.88;;;12.57;;
23474;SDS011;11910;52.086;21.066;2023-09-12T14:15:28;17.95;;;12.68;;
23474;SDS011;11910;52.086;21.066;2023-09-12T14:17:53;17.05;;;14.20;;
23474;SDS011;11910;52.086;21.066;2023-09-12T14:20:22;17.60;;;12.95;;
23474;SDS011;11910;52.086;21.066;2023-09-12T14:22:55;13.93;;;12.43;;
23474;SDS011;11910;52.086;21.066;2023-09-12T14:25:57;14.25;;;12.93;;
23474;SDS011;11910;52.086;21.066;2023-09-12T14:28:34;15.68;;;12.95;;
23474;SDS011;11910;52.086;21.066;2023-09-12T14:31:10;14.07;;;12.70;;
23474;SDS011;11910;52.086;21.066;2023-09-12T14:33:47;14.23;;;12.90;;
23474;SDS011;11910;52.086;21.066;2023-09-12T14:36:27;14.52;;;12.75;;
23474;SDS011;11910;52.086;21.066;2023-09-12T14:39:28;14.65;;;13.10;;
23474;SDS011;11910;52.086;21.066;2023-09-12T14:42:17;15.60;;;13.48;;
23474;SDS011;11910;52.086;21.066;2023-09-12T14:45:24;13.90;;;12.48;;
23474;SDS011;11910;52.086;21.066;2023-09-12T14:48:10;15.60;;;14.10;;
23474;SDS011;11910;52.086;21.066;2023-09-12T14:51:05;15.50;;;14.00;;
23474;SDS011;11910;52.086;21.066;2023-09-12T15:03:50;17.60;;;16.00;;
23474;SDS011;11910;52.086;21.066;2023-09-12T15:06:27;22.90;;;15.57;;
23474;SDS011;11910;52.086;21.066;2023-09-12T15:16:04;20.73;;;16.05;;
23474;SDS011;11910;52.086;21.066;2023-09-12T15:19:24;18.10;;;16.27;;
23474;SDS011;11910;52.086;21.066;2023-09-12T15:22:30;17.55;;;15.82;;
23474;SDS011;11910;52.086;21.066;2023-09-12T15:28:55;22.65;;;17.40;;
23474;SDS011;11910;52.086;21.066;2023-09-12T15:31:26;19.75;;;17.30;;
23474;SDS011;11910;52.086;21.066;2023-09-12T15:33:52;26.05;;;17.25;;
23474;SDS011;11910;52.086;21.066;2023-09-12T15:36:17;21.08;;;18.15;;
23474;SDS011;11910;52.086;21.066;2023-09-12T15:38:43;24.65;;;17.65;;
23474;SDS011;11910;52.086;21.066;2023-09-12T15:41:17;30.98;;;18.48;;
23474;SDS011;11910;52.086;21.066;2023-09-12T15:43:53;31.65;;;19.08;;
23474;SDS011;11910;52.086;21.066;2023-09-12T15:46:18;33.95;;;18.63;;
23474;SDS011;11910;52.086;21.066;2023-09-12T15:48:44;31.27;;;19.42;;
23474;SDS011;11910;52.086;21.066;2023-09-12T15:51:10;28.83;;;19.00;;
23474;SDS011;11910;52.086;21.066;2023-09-12T15:53:35;40.50;;;20.63;;
23474;SDS011;11910;52.086;21.066;2023-09-12T15:56:01;38.58;;;20.75;;
23474;SDS011;11910;52.086;21.066;2023-09-12T15:58:27;40.08;;;21.48;;